Time;durP1;ratioP1;P1;durP2;ratioP2;P2;SDS_P1;SDS_P2;PMS_P1;PMS_P2;Temp;Humidity;BMP_temperature;BMP_pressure;BME280_temperature;BME280_humidity;BME280_pressure;Samples;Min_cycle;Max_cycle;Signal;HPM_P1;HPM_P2
2023/08/19 00:01:21;;;;;;;0.20;0.20;;;;;;;16.80;72.10;102616.00;5051356;28;20082;-76
2023/08/19 00:03:49;;;;;;;0.35;0.20;;;;;;;16.77;72.04;102620.47;5051366;28;20055;-76
2023/08/19 00:06:32;;;;;;;0.20;0.20;;;;;;;16.78;72.18;102619.56;5052451;28;20080;-76
2023/08/19 00:08:59;;;;;;;2.08;0.20;;;;;;;16.77;72.08;102620.47;5053419;28;20058;-76
2023/08/19 00:11:25;;;;;;;3.72;0.30;;;;;;;16.76;72.34;102624.88;5056798;28;20388;-76
2023/08/19 00:13:54;;;;;;;0.77;0.20;;;;;;;16.73;72.37;102613.44;5049215;28;20048;-77
2023/08/19 00:16:21;;;;;;;0.40;0.20;;;;;;;16.72;72.27;102612.56;5056132;28;20045;-77
2023/08/19 00:18:49;;;;;;;0.25;0.20;;;;;;;16.71;72.25;102610.84;5055045;28;20052;-76
2023/08/19 00:21:17;;;;;;;1.75;0.20;;;;;;;16.71;72.27;102607.34;5060886;28;20052;-79
2023/08/19 00:23:43;;;;;;;1.65;0.30;;;;;;;16.70;72.46;102608.22;5058758;28;20049;-79
2023/08/19 00:26:11;;;;;;;2.05;0.28;;;;;;;16.69;72.43;102602.06;5056450;28;20045;-78
2023/08/19 00:28:38;;;;;;;2.33;0.20;;;;;;;16.67;72.51;102601.22;5056896;28;20408;-78
2023/08/19 00:31:07;;;;;;;0.20;0.20;;;;;;;16.66;72.58;102598.59;5056548;28;20044;-78
2023/08/19 00:33:34;;;;;;;1.00;0.20;;;;;;;16.64;72.73;102604.75;5055892;28;20787;-78
2023/08/19 00:36:01;;;;;;;1.75;0.20;;;;;;;16.63;72.83;102605.66;5055131;28;20048;-79
2023/08/19 00:38:28;;;;;;;0.40;0.40;;;;;;;16.63;72.56;102608.31;5059699;28;20044;-79
2023/08/19 00:40:55;;;;;;;0.60;0.28;;;;;;;16.61;72.56;102604.81;5054188;28;20056;-79
2023/08/19 00:43:22;;;;;;;0.20;0.20;;;;;;;16.62;72.83;102603.03;5052681;28;20049;-79
2023/08/19 00:45:51;;;;;;;1.63;0.40;;;;;;;16.60;72.47;102607.47;5058295;28;20049;-79
2023/08/19 00:48:21;;;;;;;0.40;0.20;;;;;;;16.59;72.42;102611.00;5065952;28;20047;-79
2023/08/19 00:50:49;;;;;;;1.65;0.20;;;;;;;16.51;72.61;102602.34;5066193;28;20132;-79
2023/08/19 00:53:16;;;;;;;0.38;0.22;;;;;;;16.57;72.51;102603.13;5034524;28;21804;-75
2023/08/19 00:55:43;;;;;;;1.33;0.22;;;;;;;16.55;72.59;102602.25;5051649;28;20044;-75
2023/08/19 00:58:11;;;;;;;0.63;0.22;;;;;;;16.54;72.67;102600.53;5050468;28;20104;-74
2023/08/19 01:00:39;;;;;;;1.60;0.50;;;;;;;16.54;72.66;102592.63;5053007;28;20047;-74
2023/08/19 01:03:06;;;;;;;0.88;0.20;;;;;;;16.53;72.80;102595.25;5050519;28;20051;-75
2023/08/19 01:05:45;;;;;;;1.00;0.20;;;;;;;16.52;72.75;102585.59;5052344;28;20051;-75
2023/08/19 01:08:17;;;;;;;0.50;0.30;;;;;;;16.50;72.60;102587.38;5043014;28;20076;-74
2023/08/19 01:10:51;;;;;;;0.20;0.20;;;;;;;16.48;72.78;102586.53;5052305;28;20052;-75
2023/08/19 01:13:25;;;;;;;0.43;0.20;;;;;;;16.47;72.62;102582.16;5050740;28;20055;-75
2023/08/19 01:15:56;;;;;;;0.98;0.20;;;;;;;16.44;72.93;102575.16;5053174;28;20060;-74
2023/08/19 01:18:24;;;;;;;2.67;0.20;;;;;;;16.45;72.97;102581.31;5049369;28;20414;-75
2023/08/19 01:20:55;;;;;;;1.30;0.20;;;;;;;16.43;72.84;102578.69;5054991;28;20045;-78
2023/08/19 01:23:31;;;;;;;1.92;0.20;;;;;;;16.38;73.20;102573.47;5059129;28;20045;-79
2023/08/19 01:26:01;;;;;;;0.20;0.20;;;;;;;16.40;73.36;102569.06;5054945;28;20041;-79
2023/08/19 01:28:28;;;;;;;1.00;0.20;;;;;;;16.40;73.19;102574.34;5058219;28;20055;-79
2023/08/19 01:30:55;;;;;;;0.22;0.20;;;;;;;16.33;73.15;102561.25;5055593;28;20049;-76
2023/08/19 01:33:22;;;;;;;12.98;1.13;;;;;;;16.37;73.28;102574.38;5053818;28;20044;-77
2023/08/19 01:36:00;;;;;;;0.47;0.28;;;;;;;16.35;73.38;102564.75;5053726;28;20053;-77
2023/08/19 01:38:39;;;;;;;9.52;0.55;;;;;;;16.36;73.34;102570.00;5048476;28;20124;-76
2023/08/19 01:41:10;;;;;;;3.63;0.20;;;;;;;16.34;73.53;102566.50;5062076;28;20044;-76
2023/08/19 01:43:38;;;;;;;2.65;0.38;;;;;;;16.25;73.45;102550.84;5060897;28;20134;-77
2023/08/19 01:46:05;;;;;;;1.20;0.28;;;;;;;16.31;73.66;102553.38;5061703;28;20091;-77
2023/08/19 01:48:32;;;;;;;0.40;0.30;;;;;;;16.31;73.56;102560.41;5056253;28;20411;-77
2023/08/19 01:50:59;;;;;;;4.15;0.70;;;;;;;16.31;73.60;102563.94;5059058;28;20048;-77
2023/08/19 01:53:26;;;;;;;1.13;0.20;;;;;;;16.30;73.73;102551.63;5058009;28;20499;-77
2023/08/19 01:55:53;;;;;;;0.77;0.30;;;;;;;16.29;73.92;102549.88;5057117;28;20499;-77
2023/08/19 01:58:21;;;;;;;0.20;0.20;;;;;;;16.29;73.70;102555.16;5062149;28;20041;-77
2023/08/19 02:00:48;;;;;;;1.75;0.30;;;;;;;16.27;74.09;102554.28;5062331;28;20071;-77
2023/08/19 02:03:15;;;;;;;1.48;0.38;;;;;;;16.27;74.23;102545.50;5062758;28;20040;-76
2023/08/19 02:05:42;;;;;;;0.45;0.30;;;;;;;16.25;74.06;102548.19;5060106;28;20045;-76
2023/08/19 02:08:09;;;;;;;0.85;0.30;;;;;;;16.26;74.00;102549.06;5063128;28;20407;-77
2023/08/19 02:10:36;;;;;;;1.63;0.28;;;;;;;16.26;74.00;102549.06;5055072;28;20150;-77
2023/08/19 02:13:03;;;;;;;0.80;0.30;;;;;;;16.24;74.35;102545.56;5055504;28;20055;-77
2023/08/19 02:15:31;;;;;;;0.20;0.20;;;;;;;16.24;74.10;102548.19;5053099;28;20044;-77
2023/08/19 02:17:58;;;;;;;1.80;0.30;;;;;;;16.07;73.78;102517.66;5062580;28;20052;-76
2023/08/19 02:20:25;;;;;;;0.43;0.22;;;;;;;16.23;74.09;102549.97;5053934;28;20045;-76
2023/08/19 02:22:52;;;;;;;1.95;0.20;;;;;;;16.23;74.12;102547.34;5059668;28;20048;-76
2023/08/19 02:25:19;;;;;;;0.30;0.30;;;;;;;16.23;74.10;102549.97;5054129;28;20044;-76
2023/08/19 02:27:46;;;;;;;0.28;0.25;;;;;;;16.22;74.12;102552.63;5060021;28;20052;-76
2023/08/19 02:30:13;;;;;;;3.95;0.30;;;;;;;16.21;74.07;102546.47;5062104;28;20041;-76
2023/08/19 02:32:41;;;;;;;0.73;0.20;;;;;;;16.21;73.94;102553.53;5054932;28;20044;-77
2023/08/19 02:35:10;;;;;;;0.30;0.20;;;;;;;16.18;73.90;102550.03;5061007;28;20043;-77
2023/08/19 02:37:37;;;;;;;1.00;0.30;;;;;;;16.17;73.73;102552.69;5057578;28;20116;-76
2023/08/19 02:40:05;;;;;;;2.40;0.40;;;;;;;16.17;74.07;102561.47;5058287;28;20055;-76
2023/08/19 02:42:32;;;;;;;0.57;0.20;;;;;;;16.16;74.13;102561.47;5056650;28;20074;-74
2023/08/19 02:44:59;;;;;;;0.73;0.20;;;;;;;16.16;74.17;102558.84;5054207;28;20486;-74
2023/08/19 02:47:26;;;;;;;1.65;0.25;;;;;;;16.14;74.12;102553.59;5052711;28;20044;-75
2023/08/19 02:49:54;;;;;;;0.85;0.30;;;;;;;16.12;74.14;102546.59;5056371;28;20427;-75
2023/08/19 02:52:21;;;;;;;1.13;0.20;;;;;;;16.10;74.20;102546.59;5049218;28;20051;-74
2023/08/19 02:54:48;;;;;;;0.40;0.40;;;;;;;16.11;74.33;102542.25;5053760;28;20048;-74
2023/08/19 02:57:15;;;;;;;1.77;0.30;;;;;;;16.11;74.38;102550.16;5052273;28;20424;-75
2023/08/19 02:59:42;;;;;;;0.50;0.40;;;;;;;16.10;74.34;102548.38;5047707;28;22136;-74
2023/08/19 03:02:09;;;;;;;4.00;0.30;;;;;;;16.10;74.33;102551.88;5051625;28;20518;-75
2023/08/19 03:04:37;;;;;;;0.30;0.28;;;;;;;16.10;74.22;102545.75;5056263;28;20048;-75
2023/08/19 03:07:05;;;;;;;1.17;0.30;;;;;;;16.10;74.35;102553.66;5051582;28;20056;-75
2023/08/19 03:09:32;;;;;;;1.30;0.22;;;;;;;16.09;74.38;102549.28;5052126;28;20045;-75
2023/08/19 03:11:59;;;;;;;3.50;0.28;;;;;;;16.09;74.45;102551.91;5055040;28;20499;-74
2023/08/19 03:14:26;;;;;;;0.35;0.20;;;;;;;16.08;74.47;102547.53;5054361;28;20131;-74
2023/08/19 03:16:54;;;;;;;0.20;0.20;;;;;;;16.07;74.62;102543.16;5052515;28;20045;-75
2023/08/19 03:19:21;;;;;;;0.30;0.30;;;;;;;16.03;74.29;102541.47;5048947;28;20072;-75
2023/08/19 03:21:49;;;;;;;1.85;0.73;;;;;;;16.03;74.60;102544.09;5052088;28;20768;-75
2023/08/19 03:24:17;;;;;;;1.98;0.30;;;;;;;16.06;74.63;102552.81;5051330;28;20094;-75
2023/08/19 03:26:44;;;;;;;5.05;0.65;;;;;;;16.02;74.80;102545.84;5055193;28;20052;-75
2023/08/19 03:29:11;;;;;;;0.47;0.30;;;;;;;16.01;74.87;102545.88;5055232;28;20049;-75
2023/08/19 03:31:38;;;;;;;8.57;1.00;;;;;;;16.04;74.54;102559.88;5052177;28;20041;-75
2023/08/19 03:34:05;;;;;;;0.30;0.20;;;;;;;15.95;74.61;102542.41;5058286;28;20051;-75
2023/08/19 03:36:32;;;;;;;0.75;0.30;;;;;;;16.04;74.76;102559.00;5054103;28;20052;-75
2023/08/19 03:38:58;;;;;;;0.40;0.28;;;;;;;16.01;74.73;102544.09;5051022;28;20052;-75
2023/08/19 03:41:27;;;;;;;0.32;0.30;;;;;;;16.02;74.77;102555.50;5053309;28;20061;-75
2023/08/19 03:43:54;;;;;;;1.00;0.30;;;;;;;16.01;74.71;102561.69;5052523;28;20044;-75
2023/08/19 03:46:20;;;;;;;0.57;0.20;;;;;;;15.99;74.38;102563.47;5054848;28;20475;-74
2023/08/19 03:48:47;;;;;;;0.28;0.25;;;;;;;15.95;74.53;102555.59;5053995;28;20084;-75
2023/08/19 03:51:14;;;;;;;2.75;0.20;;;;;;;15.99;74.53;102560.81;5053363;28;20051;-75
2023/08/19 03:53:41;;;;;;;0.73;0.30;;;;;;;15.99;74.51;102560.81;5050359;28;20127;-75
2023/08/19 03:56:08;;;;;;;1.90;0.30;;;;;;;15.96;74.41;102551.19;5052443;28;20044;-75
2023/08/19 03:58:36;;;;;;;1.52;0.40;;;;;;;15.95;74.41;102555.59;5053414;28;20045;-75
2023/08/19 04:01:06;;;;;;;0.40;0.30;;;;;;;15.94;74.63;102553.00;5050387;28;20060;-73
2023/08/19 04:03:34;;;;;;;0.80;0.50;;;;;;;15.93;74.46;102545.97;5050125;28;20041;-73
2023/08/19 04:06:01;;;;;;;0.50;0.30;;;;;;;15.90;74.50;102560.03;5051007;28;20780;-74
2023/08/19 04:08:29;;;;;;;1.60;0.30;;;;;;;15.92;74.69;102560.91;5049127;28;20045;-74
2023/08/19 04:10:56;;;;;;;1.08;0.30;;;;;;;15.91;74.84;102551.25;5052430;28;20166;-75
2023/08/19 04:13:23;;;;;;;0.52;0.40;;;;;;;15.91;74.76;102564.44;5052935;28;20047;-74
2023/08/19 04:15:51;;;;;;;0.75;0.38;;;;;;;15.90;74.80;102567.94;5050306;28;20051;-74
2023/08/19 04:18:18;;;;;;;4.07;0.40;;;;;;;15.89;74.98;102560.94;5051926;28;20665;-75
2023/08/19 04:20:45;;;;;;;0.75;0.30;;;;;;;15.91;75.14;102567.09;5052505;28;20533;-74
2023/08/19 04:23:13;;;;;;;0.98;0.30;;;;;;;15.90;75.08;102569.72;5046966;28;20392;-74
2023/08/19 04:25:40;;;;;;;0.50;0.30;;;;;;;15.90;75.18;102567.09;5052249;28;20052;-75
2023/08/19 04:28:08;;;;;;;1.75;0.30;;;;;;;15.83;75.05;102550.47;5051650;28;20049;-75
2023/08/19 04:30:36;;;;;;;1.23;0.30;;;;;;;15.91;75.24;102559.19;5056811;28;20077;-76
2023/08/19 04:33:04;;;;;;;0.88;0.30;;;;;;;15.90;75.18;102560.03;5058809;28;20430;-76
2023/08/19 04:35:31;;;;;;;0.60;0.30;;;;;;;15.91;75.25;102553.91;5058020;28;20044;-77
2023/08/19 04:37:58;;;;;;;0.57;0.50;;;;;;;15.93;75.43;102567.91;5052636;28;20045;-76
2023/08/19 04:40:26;;;;;;;1.75;0.30;;;;;;;15.92;75.39;102566.19;5045565;28;20055;-76
2023/08/19 04:42:52;;;;;;;1.17;0.30;;;;;;;15.94;75.48;102574.06;5051302;28;20426;-77
2023/08/19 04:45:19;;;;;;;0.47;0.30;;;;;;;15.94;75.53;102563.53;5056292;28;20136;-77
2023/08/19 04:47:46;;;;;;;0.25;0.20;;;;;;;15.95;75.65;102552.09;5053863;28;20051;-76
2023/08/19 04:50:14;;;;;;;0.93;0.40;;;;;;;15.95;75.63;102554.72;5051694;28;20047;-77
2023/08/19 04:52:41;;;;;;;0.47;0.30;;;;;;;15.98;75.81;102559.09;5056015;28;20510;-76
2023/08/19 04:55:09;;;;;;;0.55;0.30;;;;;;;15.99;75.89;102555.56;5056199;28;20053;-76
2023/08/19 04:57:36;;;;;;;0.88;0.30;;;;;;;16.00;75.93;102567.88;5054173;28;20133;-77
2023/08/19 05:00:03;;;;;;;2.50;0.40;;;;;;;16.01;75.94;102561.69;5058881;28;20491;-77
2023/08/19 05:02:30;;;;;;;0.30;0.30;;;;;;;15.96;75.92;102551.19;5053824;28;20048;-77
2023/08/19 05:04:57;;;;;;;0.30;0.30;;;;;;;16.04;75.95;102561.66;5054926;28;20059;-77
2023/08/19 05:07:25;;;;;;;0.20;0.20;;;;;;;16.06;76.13;102570.41;5059971;28;20509;-77
2023/08/19 05:09:52;;;;;;;0.77;0.30;;;;;;;16.07;75.85;102569.50;5053853;28;20055;-80
2023/08/19 05:12:19;;;;;;;0.55;0.40;;;;;;;16.08;76.10;102564.22;5053546;28;20041;-79
2023/08/19 05:14:46;;;;;;;2.10;0.40;;;;;;;16.10;76.05;102565.06;5058081;28;20414;-79
2023/08/19 05:17:13;;;;;;;0.40;0.30;;;;;;;16.13;76.21;102561.53;5065548;28;20052;-79
2023/08/19 05:19:40;;;;;;;2.75;0.60;;;;;;;16.13;76.24;102558.88;5057833;28;20059;-79
2023/08/19 05:22:07;;;;;;;2.72;0.40;;;;;;;16.17;76.04;102558.84;5062783;28;20041;-79
2023/08/19 05:24:35;;;;;;;0.52;0.25;;;;;;;16.19;76.23;102559.69;5060980;28;20053;-79
2023/08/19 05:27:02;;;;;;;0.55;0.30;;;;;;;16.23;76.26;102559.66;5066172;28;20058;-79
2023/08/19 05:29:30;;;;;;;0.77;0.22;;;;;;;16.25;76.04;102564.00;5061488;28;20045;-78
2023/08/19 05:31:58;;;;;;;3.47;0.47;;;;;;;16.28;76.02;102557.78;5063820;28;20384;-79
2023/08/19 05:34:25;;;;;;;0.40;0.38;;;;;;;16.30;76.17;102562.16;5066395;28;20048;-80
2023/08/19 05:36:52;;;;;;;0.65;0.45;;;;;;;16.34;76.33;102563.88;5058962;28;20044;-79
2023/08/19 05:39:19;;;;;;;0.93;0.30;;;;;;;16.35;76.24;102560.34;5061038;28;20047;-79
2023/08/19 05:41:48;;;;;;;1.85;0.38;;;;;;;16.35;76.44;102543.66;5067060;28;20041;-79
2023/08/19 05:44:14;;;;;;;0.93;0.20;;;;;;;16.41;76.32;102540.91;5064490;28;20052;-79
2023/08/19 05:46:41;;;;;;;1.20;0.40;;;;;;;16.44;76.33;102540.00;5059272;28;20079;-79
2023/08/19 05:49:08;;;;;;;2.53;0.40;;;;;;;16.46;76.21;102539.09;5055313;28;20037;-80
2023/08/19 05:51:35;;;;;;;0.57;0.40;;;;;;;16.49;76.26;102531.13;5065562;28;20052;-79
2023/08/19 05:54:02;;;;;;;0.60;0.30;;;;;;;16.52;76.24;102538.13;5055827;28;20041;-78
2023/08/19 05:56:29;;;;;;;0.77;0.40;;;;;;;16.49;76.09;102528.50;5058411;28;20488;-79
2023/08/19 05:58:58;;;;;;;1.70;0.32;;;;;;;16.57;76.13;102533.66;5058274;28;20052;-79
2023/08/19 06:01:25;;;;;;;0.75;0.30;;;;;;;16.61;75.79;102540.63;5061135;28;20059;-80
2023/08/19 06:03:52;;;;;;;2.00;0.35;;;;;;;16.57;76.31;102525.75;5056669;28;20069;-80
2023/08/19 06:06:19;;;;;;;0.60;0.30;;;;;;;16.66;76.14;102538.78;5064454;28;20652;-79
2023/08/19 06:08:46;;;;;;;1.58;0.30;;;;;;;16.54;76.12;102515.25;5055854;28;20045;-80
2023/08/19 06:11:13;;;;;;;0.65;0.40;;;;;;;16.72;76.11;102540.47;5056376;28;20043;-79
2023/08/19 06:13:40;;;;;;;6.78;0.73;;;;;;;16.76;76.18;102544.78;5060291;28;20068;-80
2023/08/19 06:16:08;;;;;;;1.58;0.40;;;;;;;16.79;76.27;102539.47;5059187;28;20429;-79
2023/08/19 06:18:35;;;;;;;2.05;0.30;;;;;;;16.75;76.07;102536.00;5055472;28;20072;-80
2023/08/19 06:21:04;;;;;;;2.30;0.50;;;;;;;16.79;75.87;102537.72;5055754;28;20491;-82
2023/08/19 06:23:32;;;;;;;2.85;0.40;;;;;;;16.89;75.97;102542.84;5061405;28;20058;-82
2023/08/19 06:25:59;;;;;;;1.40;0.50;;;;;;;16.92;75.88;102541.03;5052636;28;20040;-82
2023/08/19 06:28:26;;;;;;;0.82;0.40;;;;;;;16.97;75.98;102543.59;5061388;28;20052;-82
2023/08/19 06:30:53;;;;;;;0.40;0.40;;;;;;;16.99;75.89;102540.03;5054356;28;20504;-77
2023/08/19 06:33:22;;;;;;;0.80;0.30;;;;;;;17.02;76.09;102541.75;5054651;28;20044;-76
2023/08/19 06:35:50;;;;;;;2.20;0.40;;;;;;;17.07;75.85;102537.25;5056083;28;20055;-77
2023/08/19 06:38:20;;;;;;;0.88;0.30;;;;;;;17.03;75.74;102525.00;5025970;28;21240;-77
2023/08/19 06:40:55;;;;;;;1.17;0.40;;;;;;;17.16;75.76;102536.22;5053547;28;20056;-77
2023/08/19 06:43:26;;;;;;;0.40;0.40;;;;;;;17.17;75.31;102519.50;5054871;28;20103;-76
2023/08/19 06:45:54;;;;;;;0.50;0.38;;;;;;;17.22;75.33;102526.44;5052545;28;20072;-77
2023/08/19 06:48:24;;;;;;;0.98;0.40;;;;;;;17.20;75.47;102515.00;5058280;28;20047;-76
2023/08/19 06:50:51;;;;;;;0.90;0.30;;;;;;;17.27;75.47;102527.19;5052645;28;20053;-76
2023/08/19 06:53:19;;;;;;;0.50;0.35;;;;;;;17.33;75.29;102530.63;5053889;28;20045;-78
2023/08/19 06:55:55;;;;;;;1.10;0.40;;;;;;;17.35;75.08;102526.19;5053161;28;20458;-75
2023/08/19 06:58:25;;;;;;;0.60;0.50;;;;;;;17.38;75.14;102524.34;5055320;28;20120;-76
2023/08/19 07:00:59;;;;;;;1.33;0.50;;;;;;;17.43;75.13;102529.56;5050003;28;20045;-77
2023/08/19 07:03:29;;;;;;;1.30;0.50;;;;;;;17.38;75.15;102507.63;5057290;28;20091;-77
2023/08/19 07:05:57;;;;;;;2.50;0.50;;;;;;;17.49;74.92;102532.94;5056765;28;20203;-77
2023/08/19 07:08:27;;;;;;;0.70;0.50;;;;;;;17.47;75.27;102521.53;5051990;28;20495;-77
2023/08/19 07:10:55;;;;;;;3.22;0.80;;;;;;;17.56;75.03;102532.81;5057214;28;20045;-77
2023/08/19 07:13:22;;;;;;;2.60;1.20;;;;;;;17.60;75.10;102531.88;5055835;28;20132;-76
2023/08/19 07:15:57;;;;;;;1.73;0.75;;;;;;;17.62;75.03;102530.94;5059011;28;20413;-76
2023/08/19 07:18:27;;;;;;;1.20;1.10;;;;;;;17.65;75.08;102536.19;5051917;28;20045;-76
2023/08/19 07:20:57;;;;;;;3.00;0.80;;;;;;;17.65;74.80;102538.81;5054260;28;20057;-77
2023/08/19 07:23:25;;;;;;;1.65;1.23;;;;;;;17.71;75.14;102537.81;5058200;28;20060;-76
2023/08/19 07:25:53;;;;;;;4.20;1.10;;;;;;;17.73;75.17;102542.19;5050530;28;20510;-76
2023/08/19 07:28:23;;;;;;;2.72;1.60;;;;;;;17.74;75.26;102521.91;5054421;28;20142;-76
2023/08/19 07:30:51;;;;;;;6.65;3.38;;;;;;;17.77;75.24;102533.28;5055034;28;20499;-75
2023/08/19 07:33:19;;;;;;;3.58;1.90;;;;;;;17.85;75.05;102538.44;5052521;28;20055;-76
2023/08/19 07:35:47;;;;;;;1.92;1.38;;;;;;;17.87;74.93;102531.38;5051704;28;20045;-76
2023/08/19 07:38:15;;;;;;;4.05;1.88;;;;;;;17.91;75.06;102529.50;5052615;28;20045;-75
2023/08/19 07:40:41;;;;;;;2.60;1.65;;;;;;;17.94;74.82;102534.75;5055513;28;20040;-77
2023/08/19 07:43:08;;;;;;;1.33;1.10;;;;;;;17.96;74.84;102533.81;5054119;28;20044;-77
2023/08/19 07:45:36;;;;;;;3.22;1.42;;;;;;;17.99;74.79;102535.50;5061328;28;20052;-77
2023/08/19 07:48:03;;;;;;;1.85;1.33;;;;;;;18.01;74.83;102536.31;5051442;28;20044;-77
2023/08/19 07:50:30;;;;;;;1.85;1.38;;;;;;;18.03;74.62;102537.19;5055615;28;20098;-77
2023/08/19 07:52:58;;;;;;;4.75;1.50;;;;;;;18.05;74.42;102535.38;5058017;28;20059;-78
2023/08/19 07:55:25;;;;;;;1.80;1.40;;;;;;;18.07;74.66;102536.22;5054075;28;20040;-77
2023/08/19 07:57:52;;;;;;;5.88;1.80;;;;;;;18.10;74.45;102527.31;5060385;28;20410;-77
2023/08/19 08:00:21;;;;;;;1.35;1.25;;;;;;;18.12;74.50;102529.03;5053925;28;20068;-77
2023/08/19 08:02:48;;;;;;;2.58;2.20;;;;;;;18.15;74.27;102528.09;5054079;28;20044;-77
2023/08/19 08:05:15;;;;;;;4.57;1.52;;;;;;;18.17;74.21;102537.75;5060388;28;20498;-78
2023/08/19 08:07:42;;;;;;;3.13;1.38;;;;;;;18.18;74.42;102533.31;5057399;28;20056;-77
2023/08/19 08:10:10;;;;;;;1.30;1.15;;;;;;;18.23;74.26;102535.88;5056044;28;20131;-76
2023/08/19 08:12:37;;;;;;;2.65;1.10;;;;;;;18.26;74.20;102541.09;5052663;28;20049;-75
2023/08/19 08:15:05;;;;;;;1.70;1.60;;;;;;;18.28;73.99;102536.66;5056839;28;20800;-77
2023/08/19 08:17:31;;;;;;;1.83;1.35;;;;;;;18.31;74.07;102533.94;5051588;28;20158;-76
2023/08/19 08:19:58;;;;;;;3.05;1.55;;;;;;;18.29;73.84;102523.38;5052702;28;20044;-76
2023/08/19 08:22:26;;;;;;;1.80;1.70;;;;;;;18.33;74.06;102529.47;5055052;28;20123;-77
2023/08/19 08:24:53;;;;;;;2.63;2.38;;;;;;;18.32;74.01;102531.22;5053317;28;20045;-77
2023/08/19 08:27:21;;;;;;;4.43;1.55;;;;;;;18.34;73.83;102534.72;5051704;28;20562;-76
2023/08/19 08:29:48;;;;;;;29.63;8.15;;;;;;;18.36;73.90;102532.91;5053452;28;20810;-76
2023/08/19 08:32:15;;;;;;;3.53;1.48;;;;;;;18.38;73.74;102532.88;5050688;28;20040;-77
2023/08/19 08:34:41;;;;;;;1.52;1.40;;;;;;;18.40;74.01;102542.50;5051376;28;20139;-76
2023/08/19 08:37:08;;;;;;;3.45;1.63;;;;;;;18.33;73.86;102521.53;5051991;28;20055;-77
2023/08/19 08:39:35;;;;;;;3.95;2.60;;;;;;;18.43;73.73;102539.78;5051342;28;20048;-78
2023/08/19 08:42:03;;;;;;;4.35;2.00;;;;;;;18.45;73.69;102547.72;5046862;28;20558;-76
2023/08/19 08:44:34;;;;;;;2.50;1.90;;;;;;;18.46;73.48;102541.50;5054011;28;20052;-76
2023/08/19 08:47:01;;;;;;;5.53;2.05;;;;;;;18.48;73.41;102541.47;5051412;28;20052;-77
2023/08/19 08:49:29;;;;;;;3.95;2.03;;;;;;;18.48;73.36;102537.06;5053110;28;20055;-76
2023/08/19 08:51:56;;;;;;;5.68;2.15;;;;;;;18.52;73.46;102541.34;5051966;28;20043;-77
2023/08/19 08:54:24;;;;;;;3.08;2.08;;;;;;;18.53;73.23;102551.06;5051728;28;20040;-77
2023/08/19 08:56:51;;;;;;;3.45;1.70;;;;;;;18.56;73.35;102550.13;5052384;28;20660;-77
2023/08/19 08:59:18;;;;;;;3.75;1.98;;;;;;;18.54;73.34;102547.50;5048581;28;20047;-77
2023/08/19 09:01:47;;;;;;;2.08;1.98;;;;;;;18.57;73.49;102544.75;5052038;28;20045;-77
2023/08/19 09:04:16;;;;;;;4.35;2.28;;;;;;;18.59;73.59;102550.91;5049545;28;20103;-76
2023/08/19 09:06:47;;;;;;;3.67;2.38;;;;;;;18.61;73.45;102538.50;5051075;28;20052;-77
2023/08/19 09:09:15;;;;;;;6.40;3.33;;;;;;;18.65;73.25;102541.94;5051498;28;20068;-77
2023/08/19 09:11:48;;;;;;;2.63;2.28;;;;;;;18.66;73.30;102544.53;5048527;28;20059;-76
2023/08/19 09:14:21;;;;;;;2.17;1.88;;;;;;;18.61;73.50;102533.22;5049807;28;20610;-76
2023/08/19 09:16:50;;;;;;;2.00;1.90;;;;;;;18.69;73.28;102532.16;5055339;28;20118;-76
2023/08/19 09:19:17;;;;;;;2.55;1.70;;;;;;;18.71;73.24;102543.56;5051065;28;20079;-76
2023/08/19 09:21:44;;;;;;;5.63;2.38;;;;;;;18.73;73.51;102537.34;5053261;28;20052;-76
2023/08/19 09:24:16;;;;;;;2.30;2.10;;;;;;;18.74;73.30;102533.81;5056507;28;20044;-77
2023/08/19 09:26:43;;;;;;;2.58;2.03;;;;;;;18.80;73.06;102535.44;5052994;28;20057;-76
2023/08/19 09:29:10;;;;;;;3.22;2.25;;;;;;;18.84;73.15;102535.31;5047081;28;20059;-77
2023/08/19 09:31:38;;;;;;;2.03;1.80;;;;;;;18.87;73.15;102529.09;5049603;28;20044;-76
2023/08/19 09:34:06;;;;;;;3.42;1.85;;;;;;;18.91;72.68;102519.28;5054198;28;20037;-77
2023/08/19 09:36:33;;;;;;;2.80;1.95;;;;;;;18.94;72.79;102530.66;5050453;28;20044;-76
2023/08/19 09:39:00;;;;;;;2.03;1.92;;;;;;;18.99;72.56;102533.19;5052409;28;20053;-77
2023/08/19 09:41:28;;;;;;;2.72;2.13;;;;;;;19.01;72.64;102524.31;5050992;28;20495;-76
2023/08/19 09:43:56;;;;;;;2.67;1.73;;;;;;;19.03;72.47;102522.47;5053322;28;20045;-76
2023/08/19 09:46:31;;;;;;;4.38;1.73;;;;;;;19.05;72.24;102515.34;5051763;28;20059;-78
2023/08/19 09:48:58;;;;;;;3.38;1.95;;;;;;;19.10;72.28;102526.72;5048756;28;20056;-76
2023/08/19 09:51:29;;;;;;;2.15;2.00;;;;;;;19.12;71.99;102523.13;5054206;28;20049;-76
2023/08/19 09:53:57;;;;;;;2.45;1.83;;;;;;;19.04;72.20;102505.69;5054956;28;20052;-77
2023/08/19 09:56:27;;;;;;;5.00;2.05;;;;;;;19.10;72.20;102505.53;5051972;28;20036;-77
2023/08/19 09:58:56;;;;;;;2.97;1.30;;;;;;;19.21;72.06;102517.59;5049893;28;20471;-77
2023/08/19 10:01:25;;;;;;;2.08;1.98;;;;;;;19.25;72.02;102520.13;5047905;28;20044;-77
2023/08/19 10:03:52;;;;;;;1.80;1.48;;;;;;;19.22;72.14;102508.75;5055556;28;20045;-77
2023/08/19 10:06:26;;;;;;;1.65;1.55;;;;;;;19.31;72.01;102519.94;5052605;28;20048;-77
2023/08/19 10:08:59;;;;;;;3.22;1.80;;;;;;;19.30;71.86;102512.06;5054657;28;20759;-77
2023/08/19 10:11:28;;;;;;;1.02;0.93;;;;;;;19.37;71.58;102512.75;5051933;28;20254;-76
2023/08/19 10:13:58;;;;;;;3.10;1.50;;;;;;;19.37;71.66;102505.66;5054523;28;20054;-76
2023/08/19 10:16:25;;;;;;;2.13;1.70;;;;;;;19.48;71.56;102516.84;5053320;28;20076;-76
2023/08/19 10:18:53;;;;;;;2.22;1.50;;;;;;;19.52;71.32;102518.50;5053448;28;20450;-76
2023/08/19 10:21:23;;;;;;;2.42;1.30;;;;;;;19.55;71.14;102512.22;5052393;28;20077;-77
2023/08/19 10:23:52;;;;;;;2.72;1.48;;;;;;;19.60;71.05;102512.09;5054213;28;20044;-76
2023/08/19 10:26:19;;;;;;;3.97;1.80;;;;;;;19.63;70.99;102514.66;5051267;28;20408;-76
2023/08/19 10:29:05;;;;;;;1.63;1.52;;;;;;;19.65;70.78;102507.53;5054653;28;20045;-77
2023/08/19 10:31:32;;;;;;;;;;;;;;;19.71;70.75;102520.66;5051028;28;20053;-77
2023/08/19 10:33:59;;;;;;;1.75;1.30;;;;;;;19.71;70.31;102525.97;5056085;28;20070;-76
2023/08/19 10:36:29;;;;;;;1.40;1.30;;;;;;;19.73;70.00;102532.09;5054717;28;20041;-76
2023/08/19 10:39:00;;;;;;;1.45;1.35;;;;;;;19.68;69.88;102528.69;5050090;28;20044;-77
2023/08/19 10:41:29;;;;;;;1.65;1.13;;;;;;;19.75;69.72;102535.53;5054386;28;20055;-77
2023/08/19 10:44:00;;;;;;;1.35;1.25;;;;;;;19.79;69.70;102533.69;5053960;28;20048;-76
2023/08/19 10:46:33;;;;;;;1.38;1.10;;;;;;;19.80;69.38;102523.03;5050570;28;20044;-77
2023/08/19 10:49:00;;;;;;;0.82;0.82;;;;;;;19.82;69.40;102530.94;5052199;28;20052;-77
2023/08/19 10:51:47;;;;;;;2.92;1.10;;;;;;;19.83;69.54;102522.94;5054079;28;20090;-77
2023/08/19 10:54:24;;;;;;;1.88;1.00;;;;;;;19.88;69.59;102528.13;5052854;28;20095;-76
2023/08/19 10:57:08;;;;;;;1.50;1.17;;;;;;;19.91;69.59;102522.72;5053634;28;20044;-77
2023/08/19 10:59:36;;;;;;;3.47;1.02;;;;;;;19.93;69.54;102524.41;5050325;28;20139;-77
2023/08/19 11:02:04;;;;;;;1.58;1.00;;;;;;;19.96;69.08;102531.41;5051537;28;20076;-76
2023/08/19 11:04:31;;;;;;;1.20;1.10;;;;;;;19.96;69.15;102526.97;5050200;28;20045;-76
2023/08/19 11:06:59;;;;;;;3.20;1.27;;;;;;;19.99;69.12;102528.66;5050089;28;20591;-76
2023/08/19 11:09:28;;;;;;;1.08;0.98;;;;;;;19.98;68.81;102530.47;5046227;28;20079;-77
2023/08/19 11:11:56;;;;;;;3.90;1.52;;;;;;;20.02;68.83;102533.00;5048250;28;20136;-75
2023/08/19 11:14:23;;;;;;;2.90;1.20;;;;;;;19.93;69.00;102519.09;5053342;28;20056;-75
2023/08/19 11:16:50;;;;;;;2.58;0.80;;;;;;;20.01;68.52;102532.16;5053534;28;20449;-75
2023/08/19 11:19:18;;;;;;;0.95;0.93;;;;;;;20.03;68.91;102537.41;5046986;28;20047;-75
2023/08/19 11:21:46;;;;;;;3.08;1.15;;;;;;;20.04;68.89;102536.50;5056219;28;20052;-76
2023/08/19 11:24:13;;;;;;;1.00;0.95;;;;;;;20.05;68.49;102540.88;5051054;28;20049;-76
2023/08/19 11:26:42;;;;;;;1.17;0.90;;;;;;;20.07;68.24;102541.72;5055230;28;20135;-75
2023/08/19 11:29:10;;;;;;;2.67;1.13;;;;;;;20.07;68.30;102539.91;5054388;28;20124;-75